createdAt,value
2022-12-18T07:42:38.282Z,48.78
2022-12-18T07:52:42.577Z,44.08
2022-12-18T09:03:27.747Z,40.90
2022-12-18T09:23:35.023Z,44.40
2022-12-18T09:33:39.624Z,46.65
2022-12-18T09:43:47.810Z,42.47
2022-12-18T09:53:58.386Z,42.67
2022-12-18T10:04:02.041Z,39.05
2022-12-18T10:14:11.945Z,52.57
2022-12-18T10:24:23.879Z,41.83
2022-12-18T10:34:28.490Z,40.20
2022-12-18T10:44:31.435Z,42.80
2022-12-18T10:54:37.124Z,31.58
2022-12-18T11:04:53.200Z,43.17
2022-12-18T11:14:58.761Z,37.83
2022-12-18T11:35:37.736Z,39.83
2022-12-18T11:45:46.601Z,28.95
2022-12-18T11:56:04.460Z,35.90
2022-12-18T12:06:18.509Z,42.80
2022-12-18T12:16:31.360Z,30.63
2022-12-18T12:26:42.707Z,37.97
2022-12-18T12:36:58.746Z,40.05
2022-12-18T12:47:08.188Z,42.70
2022-12-18T12:57:19.765Z,37.00
2022-12-18T13:07:31.476Z,40.97
2022-12-18T13:17:36.256Z,42.58
2022-12-18T13:38:00.347Z,38.42
2022-12-18T13:48:04.742Z,40.17
2022-12-18T13:58:09.308Z,37.57
2022-12-18T14:08:16.342Z,39.80
2022-12-18T14:18:25.765Z,42.53
2022-12-18T14:28:29.411Z,40.17
2022-12-18T14:38:35.722Z,45.10
2022-12-18T14:48:41.701Z,41.97
2022-12-18T14:58:51.221Z,40.25
2022-12-18T15:08:54.353Z,43.40
2022-12-18T15:18:58.900Z,48.17
2022-12-18T15:29:03.996Z,41.03
2022-12-18T15:39:08.729Z,45.65
2022-12-18T15:59:17.614Z,41.72
2022-12-18T16:09:25.932Z,48.10
2022-12-18T16:19:31.113Z,41.33
2022-12-18T16:29:34.071Z,42.75
2022-12-18T16:39:40.109Z,41.72
2022-12-18T16:49:43.192Z,46.45
2022-12-18T16:59:48.312Z,48.38
2022-12-18T17:09:51.612Z,44.10
2022-12-18T17:19:56.029Z,41.17
2022-12-18T17:29:59.066Z,40.97
2022-12-18T17:40:03.412Z,54.58
2022-12-18T17:50:06.944Z,43.37
2022-12-18T18:00:13.072Z,42.78
2022-12-18T18:10:16.959Z,41.95
2022-12-18T18:20:22.836Z,43.58
2022-12-18T18:30:26.023Z,49.17
2022-12-18T18:40:30.511Z,44.00
2022-12-18T18:50:33.557Z,47.23
2022-12-18T19:00:37.933Z,45.40
2022-12-18T19:10:41.780Z,43.43
2022-12-18T19:20:54.977Z,44.77
2022-12-18T19:31:01.798Z,45.08
2022-12-18T19:41:07.214Z,56.33
2022-12-18T19:51:13.020Z,53.55
2022-12-18T20:01:19.610Z,54.70
2022-12-18T20:11:22.906Z,53.92
2022-12-18T20:21:27.550Z,56.78
2022-12-18T20:31:30.649Z,53.97
2022-12-18T20:41:38.307Z,53.92
2022-12-18T20:51:42.196Z,54.30
2022-12-18T21:01:48.905Z,53.97
2022-12-18T21:12:12.405Z,56.85
2022-12-18T21:22:18.828Z,59.63
2022-12-18T21:32:21.919Z,59.42
2022-12-18T21:42:46.429Z,60.72
2022-12-18T21:52:49.394Z,61.83
2022-12-18T22:03:08.711Z,60.60
2022-12-18T22:13:17.330Z,67.87
2022-12-18T22:23:21.744Z,60.53
2022-12-18T22:33:24.691Z,61.63
2022-12-18T22:43:29.027Z,65.63
2022-12-18T22:53:31.921Z,66.00
2022-12-18T23:03:37.400Z,61.10
2022-12-18T23:13:41.257Z,63.50
2022-12-18T23:23:46.098Z,68.55
2022-12-18T23:43:54.416Z,82.28
2022-12-18T23:53:59.342Z,80.80
